createdAt,value
2019-06-15T00:02:02.914Z,45.90
2019-06-15T00:04:33.970Z,46.10
2019-06-15T00:07:04.749Z,46.20
2019-06-15T00:09:35.156Z,46.50
2019-06-15T00:12:05.899Z,47.10
2019-06-15T00:14:36.250Z,47.60
2019-06-15T00:17:06.676Z,46.90
2019-06-15T00:19:37.079Z,47.30
2019-06-15T00:22:07.540Z,47.60
2019-06-15T00:24:38.230Z,47.70
2019-06-15T00:27:08.634Z,48.00
2019-06-15T00:29:39.019Z,48.20
2019-06-15T00:32:09.953Z,49.20
2019-06-15T00:34:40.319Z,48.50
2019-06-15T00:37:10.704Z,48.80
2019-06-15T00:39:41.474Z,48.80
2019-06-15T00:42:12.324Z,48.90
2019-06-15T00:44:42.723Z,49.10
2019-06-15T00:47:13.106Z,49.20
2019-06-15T00:49:43.523Z,49.10
2019-06-15T00:52:13.914Z,49.30
2019-06-15T00:54:50.313Z,49.20
2019-06-15T00:57:16.431Z,49.20
2019-06-15T00:59:46.805Z,49.10
2019-06-15T01:02:17.642Z,49.70
2019-06-15T01:04:48.277Z,49.20
2019-06-15T01:07:18.636Z,49.50
2019-06-15T01:09:49.446Z,50.00
2019-06-15T01:12:19.813Z,50.20
2019-06-15T01:14:50.193Z,51.00
2019-06-15T01:17:20.941Z,50.80
2019-06-15T01:19:51.803Z,51.50
2019-06-15T01:22:22.853Z,51.30
2019-06-15T01:25:04.848Z,51.30
2019-06-15T01:27:25.373Z,51.50
2019-06-15T01:29:56.186Z,51.70
2019-06-15T01:32:26.640Z,51.80
2019-06-15T01:34:56.962Z,51.60
2019-06-15T01:37:27.365Z,52.30
2019-06-15T01:39:58.391Z,51.70
2019-06-15T01:42:28.840Z,51.90
2019-06-15T01:44:59.210Z,52.20
2019-06-15T01:47:29.981Z,52.50
2019-06-15T01:50:00.348Z,52.60
2019-06-15T01:52:31.096Z,52.80
2019-06-15T01:55:02.249Z,52.80
2019-06-15T01:57:32.966Z,53.10
2019-06-15T02:00:08.388Z,52.90
2019-06-15T02:02:38.839Z,53.40
2019-06-15T02:05:09.550Z,54.10
2019-06-15T02:07:39.967Z,53.20
2019-06-15T02:10:12.352Z,53.70
2019-06-15T02:12:43.130Z,53.70
2019-06-15T02:15:13.854Z,54.20
2019-06-15T02:17:44.584Z,54.10
2019-06-15T02:20:15.759Z,53.70
2019-06-15T02:22:46.213Z,54.00
2019-06-15T02:25:35.234Z,54.60
2019-06-15T02:27:57.671Z,56.10
2019-06-15T02:30:30.317Z,57.40
2019-06-15T02:33:00.669Z,57.50
2019-06-15T02:35:32.572Z,59.00
2019-06-15T02:42:05.359Z,62.60
2019-06-15T02:44:36.116Z,65.20
2019-06-15T02:47:06.508Z,67.80
2019-06-15T02:49:37.165Z,67.90
2019-06-15T02:52:08.048Z,68.30
2019-06-15T02:54:38.422Z,68.70
2019-06-15T02:57:08.851Z,68.20
2019-06-15T02:59:39.654Z,68.50
2019-06-15T03:02:10.091Z,70.70
2019-06-15T03:04:41.154Z,70.80
2019-06-15T03:07:11.587Z,71.90
2019-06-15T03:09:41.988Z,73.30
2019-06-15T03:12:12.714Z,74.50
2019-06-15T03:14:44.147Z,75.80
2019-06-15T03:17:14.854Z,76.20
2019-06-15T03:19:45.235Z,77.20
2019-06-15T03:22:15.615Z,77.20
2019-06-15T03:24:46.346Z,77.90
2019-06-15T03:27:16.737Z,79.70
2019-06-15T03:29:47.453Z,79.90
2019-06-15T03:32:17.903Z,79.50
2019-06-15T03:34:48.436Z,78.30
2019-06-15T03:37:18.828Z,78.10
2019-06-15T03:39:49.757Z,78.40
2019-06-15T03:42:20.974Z,79.20
2019-06-15T03:44:51.386Z,79.40
2019-06-15T03:47:21.799Z,78.40
2019-06-15T03:49:52.429Z,78.80
2019-06-15T03:52:23.193Z,77.20
2019-06-15T03:54:53.570Z,77.70
2019-06-15T03:57:23.950Z,78.50
2019-06-15T03:59:54.698Z,78.80
2019-06-15T04:02:25.152Z,79.40
2019-06-15T04:04:55.534Z,79.40
2019-06-15T04:07:25.919Z,80.20
2019-06-15T04:09:56.629Z,81.20
2019-06-15T04:12:27.009Z,81.20
2019-06-15T04:14:57.961Z,82.00
2019-06-15T04:17:28.419Z,82.00
2019-06-15T04:19:58.803Z,81.40
2019-06-15T04:22:29.551Z,80.90
2019-06-15T04:25:00.302Z,81.10
2019-06-15T04:27:31.086Z,81.20
2019-06-15T04:30:02.023Z,80.90
2019-06-15T04:32:32.882Z,80.00
2019-06-15T04:35:05.099Z,79.30
2019-06-15T04:37:35.475Z,78.80
2019-06-15T04:40:07.084Z,78.20
2019-06-15T04:42:37.711Z,77.80
2019-06-15T04:45:08.369Z,76.90
2019-06-15T04:47:38.794Z,76.80
2019-06-15T04:50:09.571Z,75.70
2019-06-15T04:52:39.924Z,74.50
2019-06-15T04:55:10.349Z,73.20
2019-06-15T04:57:41.312Z,73.20
2019-06-15T05:00:11.804Z,73.20
2019-06-15T05:02:42.784Z,73.80
2019-06-15T05:05:14.077Z,73.50
2019-06-15T05:07:45.022Z,73.00
2019-06-15T05:10:15.869Z,72.00
2019-06-15T05:12:46.596Z,70.20
2019-06-15T05:15:17.707Z,72.10
2019-06-15T05:17:48.138Z,72.10
2019-06-15T05:20:18.989Z,70.90
2019-06-15T05:22:49.726Z,71.80
2019-06-15T05:25:20.476Z,70.10
2019-06-15T05:27:51.910Z,67.50
2019-06-15T05:30:22.295Z,68.90
2019-06-15T05:32:53.106Z,68.10
2019-06-15T05:35:23.826Z,65.20
2019-06-15T05:37:54.684Z,63.30
2019-06-15T05:40:25.544Z,62.70
2019-06-15T05:42:55.922Z,62.60
2019-06-15T05:45:26.407Z,62.60
2019-06-15T05:47:56.795Z,61.30
2019-06-15T05:50:27.516Z,59.70
2019-06-15T05:52:57.895Z,59.70
2019-06-15T05:55:28.774Z,58.50
2019-06-15T05:57:59.165Z,59.40
2019-06-15T06:00:30.031Z,57.90
2019-06-15T06:03:00.411Z,57.10
2019-06-15T06:05:30.797Z,57.60
2019-06-15T06:08:01.419Z,57.90
2019-06-15T06:10:32.363Z,56.50
2019-06-15T06:13:03.145Z,57.70
2019-06-15T06:15:33.790Z,57.70
2019-06-15T06:18:04.997Z,57.40
2019-06-15T06:20:35.391Z,55.80
2019-06-15T06:23:05.775Z,56.10
2019-06-15T06:25:36.195Z,55.70
2019-06-15T06:28:06.582Z,55.50
2019-06-15T06:30:36.926Z,55.70
2019-06-15T06:33:07.676Z,55.90
2019-06-15T06:35:38.079Z,53.90
2019-06-15T06:38:08.426Z,53.00
2019-06-15T06:40:38.806Z,53.50
2019-06-15T06:43:09.153Z,54.30
2019-06-15T06:45:39.561Z,52.90
2019-06-15T06:48:09.916Z,53.10
2019-06-15T06:50:41.475Z,53.30
2019-06-15T06:53:11.881Z,52.30
2019-06-15T06:55:42.997Z,52.60
2019-06-15T06:58:13.697Z,52.30
2019-06-15T07:00:44.428Z,51.40
2019-06-15T07:03:15.235Z,51.50
2019-06-15T07:05:45.634Z,51.60
2019-06-15T07:08:16.578Z,51.70
2019-06-15T07:10:47.427Z,50.30
2019-06-15T07:13:18.155Z,50.20
2019-06-15T07:15:48.854Z,49.10
2019-06-15T07:18:19.677Z,48.50
2019-06-15T07:20:50.490Z,48.80
2019-06-15T07:23:20.887Z,49.50
2019-06-15T07:25:51.626Z,48.30
2019-06-15T07:28:22.192Z,47.60
2019-06-15T07:30:52.639Z,47.70
2019-06-15T07:33:23.430Z,47.20
2019-06-15T07:35:53.802Z,44.90
2019-06-15T07:38:24.223Z,45.20
2019-06-15T07:40:55.072Z,44.80
2019-06-15T07:43:25.805Z,45.30
2019-06-15T07:45:56.608Z,43.40
2019-06-15T07:48:28.939Z,42.30
2019-06-15T07:50:59.621Z,43.30
2019-06-15T07:53:30.679Z,43.40
2019-06-15T07:56:01.138Z,43.10
2019-06-15T07:58:31.557Z,43.00
2019-06-15T08:01:02.063Z,43.00
2019-06-15T08:03:32.513Z,44.40
2019-06-15T08:06:02.972Z,44.40
2019-06-15T08:08:33.342Z,44.90
2019-06-15T08:11:04.087Z,44.80
2019-06-15T08:13:34.507Z,45.00
2019-06-15T08:16:04.921Z,44.80
2019-06-15T08:18:35.334Z,44.60
2019-06-15T08:21:06.072Z,44.20
2019-06-15T08:23:36.444Z,44.70
2019-06-15T08:26:07.657Z,44.60
2019-06-15T08:28:40.606Z,45.20
2019-06-15T08:31:11.286Z,44.80
2019-06-15T08:33:42.082Z,45.90
2019-06-15T08:36:13.347Z,45.20
2019-06-15T08:38:44.113Z,43.50
2019-06-15T08:41:14.518Z,43.60
2019-06-15T08:43:44.871Z,41.80
2019-06-15T08:46:15.246Z,43.40
2019-06-15T08:48:45.611Z,42.50
2019-06-15T08:51:16.438Z,42.70
2019-06-15T08:53:46.858Z,42.10
2019-06-15T08:56:17.357Z,42.00
2019-06-15T08:58:55.501Z,42.00
2019-06-15T09:01:19.770Z,42.50
2019-06-15T09:03:50.198Z,41.70
2019-06-15T09:06:20.950Z,41.60
2019-06-15T09:08:51.756Z,41.00
2019-06-15T09:11:22.149Z,41.60
2019-06-15T09:13:52.559Z,42.00
2019-06-15T09:16:25.736Z,41.70
2019-06-15T09:18:57.452Z,41.70
2019-06-15T09:21:27.590Z,41.20
2019-06-15T09:23:58.264Z,40.30
2019-06-15T09:26:28.710Z,42.00
2019-06-15T09:29:10.745Z,41.40
2019-06-15T09:31:31.361Z,40.80
2019-06-15T09:34:17.808Z,40.20
2019-06-15T09:36:34.538Z,39.40
2019-06-15T09:39:07.492Z,40.60
2019-06-15T09:41:37.871Z,40.00
2019-06-15T09:44:08.494Z,40.30
2019-06-15T09:46:38.952Z,39.50
2019-06-15T09:49:09.699Z,40.40
2019-06-15T09:51:40.426Z,39.70
2019-06-15T09:54:11.275Z,38.30
2019-06-15T09:56:41.587Z,37.70
2019-06-15T09:59:25.244Z,37.40
2019-06-15T10:01:44.091Z,37.40
2019-06-15T10:04:14.850Z,37.00
2019-06-15T10:06:45.246Z,38.50
2019-06-15T10:09:15.605Z,36.00
2019-06-15T10:11:46.045Z,35.50
2019-06-15T10:14:16.404Z,35.70
2019-06-15T10:16:47.104Z,36.00
2019-06-15T10:19:17.492Z,36.80
2019-06-15T10:21:47.891Z,35.30
2019-06-15T10:24:19.000Z,35.10
2019-06-15T10:26:49.493Z,34.50
2019-06-15T10:29:19.851Z,34.30
2019-06-15T10:31:50.505Z,32.90
2019-06-15T10:34:21.126Z,33.80
2019-06-15T10:36:51.523Z,34.20
2019-06-15T10:39:21.928Z,35.40
2019-06-15T10:41:52.821Z,34.80
2019-06-15T10:44:23.241Z,35.50
2019-06-15T10:46:53.620Z,35.50
2019-06-15T10:49:24.447Z,34.20
2019-06-15T10:51:55.567Z,34.50
2019-06-15T10:54:26.283Z,34.60
2019-06-15T10:56:57.153Z,35.50
2019-06-15T10:59:27.737Z,35.30
2019-06-15T11:01:58.908Z,34.70
2019-06-15T11:04:29.657Z,34.60
2019-06-15T11:07:00.072Z,34.40
2019-06-15T11:09:30.851Z,34.10
2019-06-15T11:12:01.574Z,32.60
2019-06-15T11:14:31.929Z,35.60
2019-06-15T11:17:03.173Z,32.60
2019-06-15T11:19:33.866Z,33.10
2019-06-15T11:22:04.247Z,31.30
2019-06-15T11:24:34.590Z,32.00
2019-06-15T11:27:05.335Z,33.40
2019-06-15T11:29:35.766Z,33.10
2019-06-15T11:32:06.751Z,31.30
2019-06-15T11:34:37.181Z,31.00
2019-06-15T11:37:07.582Z,30.60
2019-06-15T11:39:38.327Z,32.30
2019-06-15T11:42:09.075Z,32.70
2019-06-15T11:44:39.502Z,31.60
2019-06-15T11:47:09.906Z,30.90
2019-06-15T11:49:40.332Z,33.40
2019-06-15T11:52:11.119Z,30.80
2019-06-15T11:54:42.247Z,31.00
2019-06-15T11:57:13.534Z,30.70
2019-06-15T11:59:44.101Z,30.30
2019-06-15T12:02:14.879Z,29.10
2019-06-15T12:04:57.708Z,29.40
2019-06-15T12:07:17.707Z,28.90
2019-06-15T12:09:48.220Z,29.10
2019-06-15T12:12:18.575Z,29.60
2019-06-15T12:14:49.264Z,28.30
2019-06-15T12:17:19.671Z,28.20
2019-06-15T12:19:50.057Z,28.40
2019-06-15T12:22:21.008Z,29.50
2019-06-15T12:24:51.360Z,29.60
2019-06-15T12:27:21.733Z,27.00
2019-06-15T12:29:52.433Z,26.90
2019-06-15T12:32:22.799Z,26.90
2019-06-15T12:34:53.640Z,27.00
2019-06-15T12:37:24.329Z,27.90
2019-06-15T12:39:55.070Z,28.30
2019-06-15T12:42:25.876Z,29.10
2019-06-15T12:44:56.287Z,28.90
2019-06-15T12:47:26.678Z,28.90
2019-06-15T12:49:57.057Z,28.90
2019-06-15T12:52:27.435Z,29.40
2019-06-15T12:54:58.176Z,28.90
2019-06-15T12:57:28.578Z,29.30
2019-06-15T12:59:58.931Z,28.50
2019-06-15T13:02:29.745Z,28.10
2019-06-15T13:05:00.886Z,27.10
2019-06-15T13:07:31.805Z,27.00
2019-06-15T13:10:02.217Z,27.00
2019-06-15T13:12:32.557Z,27.10
2019-06-15T13:15:03.438Z,26.90
2019-06-15T13:17:34.186Z,27.50
2019-06-15T13:20:08.022Z,26.90
2019-06-15T13:22:38.757Z,26.50
2019-06-15T13:25:09.472Z,26.80
2019-06-15T13:27:40.462Z,28.20
2019-06-15T13:30:20.550Z,29.10
2019-06-15T13:32:51.507Z,26.90
2019-06-15T13:35:21.879Z,26.90
2019-06-15T13:37:52.702Z,26.90
2019-06-15T13:40:23.083Z,27.60
2019-06-15T13:42:53.799Z,26.90
2019-06-15T13:45:24.557Z,27.00
2019-06-15T13:47:54.940Z,26.90
2019-06-15T13:50:25.698Z,26.80
2019-06-15T13:52:56.058Z,26.70
2019-06-15T13:55:26.456Z,26.80
2019-06-15T13:57:57.508Z,25.40
2019-06-15T14:00:27.940Z,25.60
2019-06-15T14:02:58.343Z,25.40
2019-06-15T14:05:28.770Z,24.20
2019-06-15T14:07:59.143Z,24.70
2019-06-15T14:10:29.859Z,24.50
2019-06-15T14:13:00.953Z,24.30
2019-06-15T14:15:31.704Z,24.60
2019-06-15T14:18:02.179Z,24.20
2019-06-15T14:20:32.561Z,24.20
2019-06-15T14:23:02.965Z,24.50
2019-06-15T14:25:33.346Z,25.10
2019-06-15T14:28:03.764Z,23.30
2019-06-15T14:30:34.867Z,21.80
2019-06-15T14:33:05.629Z,21.20
2019-06-15T14:35:36.294Z,21.60
2019-06-15T14:38:06.965Z,22.50
2019-06-15T14:40:37.387Z,23.50
2019-06-15T14:43:07.753Z,23.40
2019-06-15T14:45:38.451Z,23.70
2019-06-15T14:48:08.840Z,23.40
2019-06-15T14:50:39.260Z,24.40
2019-06-15T14:53:09.604Z,24.80
2019-06-15T14:55:40.362Z,24.90
2019-06-15T14:58:11.534Z,26.20
2019-06-15T15:00:41.927Z,26.30
2019-06-15T15:03:12.310Z,25.80
2019-06-15T15:05:43.080Z,26.20
2019-06-15T15:08:14.143Z,26.20
2019-06-15T15:10:45.065Z,25.40
2019-06-15T15:13:16.056Z,25.70
2019-06-15T15:15:47.201Z,26.30
2019-06-15T15:18:17.766Z,25.40
2019-06-15T15:20:48.149Z,26.30
2019-06-15T15:23:18.590Z,26.30
2019-06-15T15:25:48.984Z,25.60
2019-06-15T15:28:19.339Z,24.80
2019-06-15T15:30:50.147Z,24.10
2019-06-15T15:33:20.485Z,25.00
2019-06-15T15:35:51.244Z,24.40
2019-06-15T15:38:21.942Z,25.20
2019-06-15T15:40:52.709Z,27.10
2019-06-15T15:43:23.464Z,28.90
2019-06-15T15:45:56.325Z,30.00
2019-06-15T15:48:26.939Z,31.10
2019-06-15T15:50:57.454Z,31.50
2019-06-15T15:53:28.180Z,31.90
2019-06-15T15:56:00.326Z,32.70
2019-06-15T15:58:30.956Z,32.10
2019-06-15T16:01:01.663Z,33.40
2019-06-15T16:03:32.033Z,32.60
2019-06-15T16:06:02.858Z,32.60
2019-06-15T16:08:33.659Z,32.60
2019-06-15T16:11:04.416Z,32.70
2019-06-15T16:13:35.167Z,33.40
2019-06-15T16:16:05.638Z,32.80
2019-06-15T16:18:36.556Z,31.50
2019-06-15T16:21:06.980Z,30.50
2019-06-15T16:23:37.355Z,30.50
2019-06-15T16:26:07.790Z,31.00
2019-06-15T16:28:38.130Z,31.00
2019-06-15T16:31:13.205Z,30.90
2019-06-15T16:33:40.574Z,30.70
2019-06-15T16:36:11.012Z,31.50
2019-06-15T16:38:41.739Z,32.20
2019-06-15T16:41:12.086Z,32.00
2019-06-15T16:43:42.776Z,32.00
2019-06-15T16:46:13.480Z,31.40
2019-06-15T16:48:43.845Z,31.60
2019-06-15T16:51:16.767Z,31.00
2019-06-15T16:53:47.318Z,30.90
2019-06-15T16:56:18.044Z,31.80
2019-06-15T16:58:48.864Z,32.20
2019-06-15T17:01:19.243Z,32.60
2019-06-15T17:03:49.768Z,32.80
2019-06-15T17:06:20.110Z,32.10
2019-06-15T17:08:51.020Z,32.60
2019-06-15T17:11:21.396Z,32.60
2019-06-15T17:13:52.089Z,32.60
2019-06-15T17:16:22.815Z,32.50
2019-06-15T17:18:56.060Z,32.30
2019-06-15T17:21:26.241Z,32.30
2019-06-15T17:23:57.247Z,32.40
2019-06-15T17:26:27.875Z,32.20
2019-06-15T17:28:58.270Z,32.30
2019-06-15T17:31:28.811Z,31.10
2019-06-15T17:33:59.434Z,30.90
2019-06-15T17:36:29.802Z,31.10
2019-06-15T17:39:00.886Z,31.00
2019-06-15T17:41:31.392Z,31.00
2019-06-15T17:44:01.754Z,31.20
2019-06-15T17:46:33.099Z,30.70
2019-06-15T17:49:03.552Z,30.20
2019-06-15T17:51:36.624Z,29.70
2019-06-15T17:54:06.447Z,29.70
2019-06-15T17:56:37.552Z,29.10
2019-06-15T17:59:07.950Z,29.30
2019-06-15T18:01:38.291Z,29.40
2019-06-15T18:04:08.991Z,29.70
2019-06-15T18:06:39.404Z,29.60
2019-06-15T18:09:09.762Z,29.20
2019-06-15T18:11:40.446Z,29.80
2019-06-15T18:14:10.792Z,30.00
2019-06-15T18:16:41.708Z,29.90
2019-06-15T18:19:12.443Z,30.00
2019-06-15T18:21:42.873Z,30.20
2019-06-15T18:24:16.304Z,29.70
2019-06-15T18:26:47.455Z,29.90
2019-06-15T18:29:18.790Z,30.60
2019-06-15T18:31:49.528Z,30.60
2019-06-15T18:34:19.939Z,30.30
2019-06-15T18:36:51.362Z,31.50
2019-06-15T18:39:21.797Z,31.50
2019-06-15T18:41:52.554Z,32.10
2019-06-15T18:44:23.300Z,33.80
2019-06-15T18:46:56.179Z,34.80
2019-06-15T18:49:26.822Z,34.90
2019-06-15T18:51:57.666Z,35.50
2019-06-15T18:54:28.080Z,35.90
2019-06-15T18:56:58.826Z,35.90
2019-06-15T18:59:29.242Z,36.20
2019-06-15T19:02:00.005Z,36.60
2019-06-15T19:04:31.244Z,36.80
2019-06-15T19:07:02.110Z,36.70
2019-06-15T19:09:34.729Z,36.40
2019-06-15T19:12:07.169Z,36.30
2019-06-15T19:14:37.666Z,36.80
2019-06-15T19:17:08.792Z,37.50
2019-06-15T19:19:39.721Z,37.40
2019-06-15T19:22:10.167Z,37.50
2019-06-15T19:24:41.308Z,38.20
2019-06-15T19:27:12.158Z,38.30
2019-06-15T19:29:46.398Z,38.80
2019-06-15T19:32:17.337Z,39.10
2019-06-15T19:34:51.141Z,39.10
2019-06-15T19:37:20.346Z,39.70
2019-06-15T19:39:51.418Z,39.70
2019-06-15T19:42:22.254Z,39.70
2019-06-15T19:44:53.008Z,39.70
2019-06-15T19:47:23.368Z,39.70
2019-06-15T19:49:56.851Z,39.60
2019-06-15T19:52:26.752Z,39.60
2019-06-15T19:54:57.149Z,39.70
2019-06-15T19:57:27.879Z,39.60
2019-06-15T19:59:58.346Z,40.10
2019-06-15T20:02:28.797Z,40.20
2019-06-15T20:05:03.694Z,40.10
2019-06-15T20:07:31.944Z,40.50
2019-06-15T20:10:02.478Z,40.60
2019-06-15T20:12:33.554Z,40.90
2019-06-15T20:15:06.361Z,41.40
2019-06-15T20:17:37.319Z,41.40
2019-06-15T20:20:08.258Z,41.70
2019-06-15T20:22:38.599Z,41.70
2019-06-15T20:25:08.981Z,42.00
2019-06-15T20:27:39.389Z,42.20
2019-06-15T20:30:09.790Z,42.40
2019-06-15T20:32:40.208Z,42.80
2019-06-15T20:35:17.455Z,42.90
2019-06-15T20:37:46.384Z,43.60
2019-06-15T20:40:17.939Z,43.90
2019-06-15T20:42:48.475Z,43.90
2019-06-15T20:45:18.838Z,43.90
2019-06-15T20:47:49.573Z,44.00
2019-06-15T20:50:28.041Z,44.40
2019-06-15T20:52:52.789Z,44.80
2019-06-15T20:55:23.394Z,45.30
2019-06-15T20:57:56.608Z,45.50
2019-06-15T21:00:26.685Z,46.10
2019-06-15T21:02:57.766Z,46.50
2019-06-15T21:05:37.685Z,45.90
2019-06-15T21:08:00.251Z,46.20
2019-06-15T21:10:37.034Z,46.30
2019-06-15T21:13:06.532Z,47.00
2019-06-15T21:15:41.816Z,46.80
2019-06-15T21:18:12.206Z,47.10
2019-06-15T21:20:42.980Z,47.50
2019-06-15T21:23:16.135Z,47.70
2019-06-15T21:25:46.731Z,48.00
2019-06-15T21:28:17.690Z,48.10
2019-06-15T21:30:48.116Z,48.00
2019-06-15T21:33:18.455Z,47.70
2019-06-15T21:35:52.607Z,48.20
2019-06-15T21:38:21.520Z,48.00
2019-06-15T21:40:52.486Z,47.80
2019-06-15T21:43:23.249Z,48.20
2019-06-15T21:45:53.645Z,47.70
2019-06-15T21:48:26.651Z,48.60
2019-06-15T21:50:58.845Z,47.60
2019-06-15T21:53:28.162Z,47.50
2019-06-15T21:55:58.883Z,47.50
2019-06-15T21:58:29.268Z,47.50
2019-06-15T22:01:19.572Z,47.40
2019-06-15T22:03:49.939Z,47.30
2019-06-15T22:06:20.717Z,48.30
2019-06-15T22:08:51.333Z,47.90
2019-06-15T22:11:21.673Z,48.10
2019-06-15T22:13:52.100Z,48.50
2019-06-15T22:16:22.816Z,48.50
2019-06-15T22:18:53.211Z,48.60
2019-06-15T22:21:25.567Z,49.20
2019-06-15T22:23:56.134Z,49.30
2019-06-15T22:26:26.779Z,48.80
2019-06-15T22:28:57.286Z,49.00
2019-06-15T22:31:28.479Z,48.90
2019-06-15T22:33:59.320Z,49.40
2019-06-15T22:36:29.714Z,49.40
2019-06-15T22:39:00.380Z,48.70
2019-06-15T22:41:30.760Z,49.00
2019-06-15T22:44:01.108Z,49.20
2019-06-15T22:46:31.559Z,49.60
2019-06-15T22:49:02.322Z,49.90
2019-06-15T22:51:32.714Z,49.80
2019-06-15T22:54:03.105Z,50.30
2019-06-15T22:56:33.472Z,51.10
2019-06-15T22:59:06.128Z,51.00
2019-06-15T23:01:36.360Z,51.40
2019-06-15T23:04:06.938Z,50.90
2019-06-15T23:06:41.427Z,50.90
2019-06-15T23:09:10.128Z,50.90
2019-06-15T23:11:40.890Z,50.90
2019-06-15T23:14:11.381Z,50.90
2019-06-15T23:16:42.045Z,50.50
2019-06-15T23:19:12.389Z,50.20
2019-06-15T23:21:43.072Z,50.20
2019-06-15T23:24:16.426Z,50.60
2019-06-15T23:26:46.262Z,50.50
2019-06-15T23:29:17.017Z,50.50
2019-06-15T23:31:47.396Z,50.30
2019-06-15T23:34:17.816Z,49.20
2019-06-15T23:36:56.819Z,49.30
2019-06-15T23:39:22.715Z,48.80
2019-06-15T23:41:53.425Z,48.80
2019-06-15T23:44:26.848Z,49.20
2019-06-15T23:46:56.649Z,49.50
2019-06-15T23:49:27.055Z,49.50
2019-06-15T23:51:57.460Z,49.60
2019-06-15T23:54:28.037Z,49.80
2019-06-15T23:56:58.577Z,50.00
2019-06-15T23:59:28.947Z,50.40
